Time;durP1;ratioP1;P1;durP2;ratioP2;P2;SDS_P1;SDS_P2;PMS_P1;PMS_P2;Temp;Humidity;BMP_temperature;BMP_pressure;BME280_temperature;BME280_humidity;BME280_pressure;Samples;Min_cycle;Max_cycle;Signal;HPM_P1;HPM_P2
2023/05/28 00:00:44;;;;;;;72.90;8.50;;;14.20;87.00;;;;;;4886705;29;20418;-82
2023/05/28 00:03:09;;;;;;;74.17;7.70;;;14.30;89.30;;;;;;4885355;29;20439;-82
2023/05/28 00:05:35;;;;;;;71.10;7.70;;;14.40;86.40;;;;;;4885454;29;20503;-81
2023/05/28 00:08:01;;;;;;;72.87;9.00;;;14.30;89.20;;;;;;4884994;29;20484;-82
2023/05/28 00:10:27;;;;;;;70.40;7.40;;;14.10;89.90;;;;;;4886177;29;20181;-81
2023/05/28 00:12:53;;;;;;;70.37;8.70;;;14.20;90.90;;;;;;4886257;29;20163;-81
2023/05/28 00:15:19;;;;;;;69.90;7.67;;;14.20;90.00;;;;;;4886042;29;20780;-82
2023/05/28 00:17:44;;;;;;;73.50;7.53;;;14.10;88.40;;;;;;4885137;29;20427;-82
2023/05/28 00:20:10;;;;;;;75.77;9.90;;;14.10;89.00;;;;;;4885914;29;20902;-82
2023/05/28 00:22:36;;;;;;;71.97;8.40;;;14.00;91.50;;;;;;4884889;29;20197;-81
2023/05/28 00:25:02;;;;;;;74.57;8.87;;;14.00;91.70;;;;;;4883969;29;20939;-81
2023/05/28 00:27:28;;;;;;;72.47;9.10;;;14.00;91.90;;;;;;4885423;29;20539;-82
2023/05/28 00:29:53;;;;;;;73.37;10.03;;;13.90;91.50;;;;;;4884763;29;20172;-81
2023/05/28 00:32:19;;;;;;;74.07;9.93;;;13.80;95.10;;;;;;4884403;29;20277;-81
2023/05/28 00:34:45;;;;;;;72.37;9.37;;;13.60;96.40;;;;;;4883117;29;20174;-81
2023/05/28 00:37:10;;;;;;;74.47;10.60;;;13.60;97.90;;;;;;4884691;29;20191;-82
2023/05/28 00:39:36;;;;;;;71.47;9.90;;;13.50;97.40;;;;;;4884435;29;20211;-81
2023/05/28 00:42:10;;;;;;;72.03;8.80;;;13.50;98.40;;;;;;4882848;29;20179;-81
2023/05/28 00:44:37;;;;;;;72.13;10.97;;;13.40;99.90;;;;;;4884249;29;20162;-81
2023/05/28 00:47:04;;;;;;;71.10;9.67;;;13.50;98.20;;;;;;4882824;29;20455;-81
2023/05/28 00:49:30;;;;;;;76.40;10.87;;;13.40;97.80;;;;;;4883246;29;20480;-81
2023/05/28 00:52:00;;;;;;;75.83;10.53;;;13.30;99.60;;;;;;4884043;29;20776;-81
2023/05/28 00:54:26;;;;;;;71.47;10.00;;;13.40;99.60;;;;;;4884522;29;20384;-81
2023/05/28 00:56:57;;;;;;;72.07;10.30;;;13.30;99.90;;;;;;4882941;29;20580;-81
2023/05/28 00:59:24;;;;;;;73.30;9.57;;;13.30;99.90;;;;;;4883685;29;20415;-81
2023/05/28 01:01:50;;;;;;;74.20;11.40;;;13.20;99.90;;;;;;4884037;29;20418;-81
2023/05/28 01:04:16;;;;;;;76.00;12.60;;;13.20;98.90;;;;;;4883991;29;20416;-81
2023/05/28 01:06:43;;;;;;;71.30;12.00;;;13.10;99.90;;;;;;4884130;29;20482;-81
2023/05/28 01:09:10;;;;;;;76.87;12.47;;;13.10;99.30;;;;;;4884582;29;20445;-81
2023/05/28 01:11:44;;;;;;;72.47;10.00;;;13.10;98.60;;;;;;4884628;29;20413;-81
2023/05/28 01:14:11;;;;;;;72.10;11.63;;;13.10;99.90;;;;;;4885508;29;20472;-82
2023/05/28 01:16:40;;;;;;;74.63;10.67;;;13.10;99.90;;;;;;4884894;29;20787;-81
2023/05/28 01:19:08;;;;;;;73.60;12.60;;;13.00;99.90;;;;;;4885983;29;20788;-81
2023/05/28 01:21:37;;;;;;;73.67;11.60;;;13.00;99.90;;;;;;4885739;29;20424;-81
2023/05/28 01:24:03;;;;;;;73.40;12.33;;;12.90;99.90;;;;;;4885968;29;20408;-81
2023/05/28 01:26:29;;;;;;;72.80;13.03;;;12.90;99.90;;;;;;4885181;29;20435;-82
2023/05/28 01:28:56;;;;;;;76.93;12.60;;;12.80;99.90;;;;;;4885373;29;20483;-81
2023/05/28 01:31:22;;;;;;;76.03;12.87;;;12.70;99.90;;;;;;4884058;29;20419;-81
2023/05/28 01:33:47;;;;;;;72.00;13.17;;;12.70;99.90;;;;;;4885616;29;20415;-81
2023/05/28 01:36:21;;;;;;;76.13;13.77;;;12.70;99.90;;;;;;4883884;29;20190;-81
2023/05/28 01:38:48;;;;;;;72.47;12.77;;;12.70;99.90;;;;;;4885418;29;20604;-82
2023/05/28 01:41:15;;;;;;;72.43;13.30;;;12.70;99.90;;;;;;4887177;29;20417;-82
2023/05/28 01:43:42;;;;;;;71.20;11.93;;;12.60;99.90;;;;;;4888984;29;20428;-81
2023/05/28 01:46:08;;;;;;;74.40;12.77;;;12.60;99.90;;;;;;4890268;29;20436;-81
2023/05/28 01:48:35;;;;;;;72.87;12.90;;;12.50;99.90;;;;;;4888473;29;20539;-81
2023/05/28 01:51:01;;;;;;;75.73;11.80;;;12.60;99.90;;;;;;4889752;29;20411;-81
2023/05/28 01:53:26;;;;;;;71.17;13.27;;;12.50;99.90;;;;;;4888811;29;20502;-81
2023/05/28 01:55:55;;;;;;;71.90;12.07;;;12.50;99.90;;;;;;4886532;29;20170;-81
2023/05/28 01:58:22;;;;;;;73.20;12.30;;;12.40;99.90;;;;;;4888921;29;20237;-81
2023/05/28 02:00:59;;;;;;;73.03;12.43;;;12.40;99.90;;;;;;4887865;29;20403;-81
2023/05/28 02:03:25;;;;;;;73.33;12.10;;;12.30;99.90;;;;;;4887022;29;20470;-81
2023/05/28 02:05:51;;;;;;;74.67;12.00;;;12.30;99.90;;;;;;4887201;29;20447;-81
2023/05/28 02:08:16;;;;;;;74.30;12.60;;;12.30;99.90;;;;;;4884651;29;20450;-81
2023/05/28 02:10:42;;;;;;;72.87;13.60;;;12.30;99.90;;;;;;4883488;29;20265;-81
2023/05/28 02:13:08;;;;;;;73.33;13.23;;;12.30;99.90;;;;;;4886765;29;20666;-81
2023/05/28 02:15:34;;;;;;;75.10;14.93;;;12.30;99.90;;;;;;4886387;29;20414;-81
2023/05/28 02:17:59;;;;;;;73.73;13.70;;;12.20;99.90;;;;;;4886734;29;20275;-81
2023/05/28 02:20:25;;;;;;;77.73;12.70;;;12.10;99.90;;;;;;4886011;29;20171;-81
2023/05/28 02:22:51;;;;;;;74.77;12.23;;;12.10;99.90;;;;;;4886546;29;20197;-81
2023/05/28 02:25:22;;;;;;;71.90;10.70;;;12.00;99.90;;;;;;4887442;29;20167;-81
2023/05/28 02:27:48;;;;;;;76.30;11.60;;;12.00;99.90;;;;;;4885346;29;20206;-81
2023/05/28 02:30:14;;;;;;;74.60;11.10;;;12.00;99.90;;;;;;4887389;29;20411;-81
2023/05/28 02:32:40;;;;;;;78.40;13.03;;;12.00;99.90;;;;;;4886711;29;20178;-81
2023/05/28 02:35:07;;;;;;;72.40;12.60;;;12.00;99.90;;;;;;4886571;29;20911;-82
2023/05/28 02:37:33;;;;;;;72.33;12.43;;;11.90;99.90;;;;;;4886147;29;20427;-81
2023/05/28 02:40:03;;;;;;;73.50;12.60;;;11.90;99.90;;;;;;4885369;29;20471;-81
2023/05/28 02:42:29;;;;;;;74.97;13.63;;;11.80;99.90;;;;;;4885829;29;20178;-81
2023/05/28 02:44:54;;;;;;;77.93;15.43;;;11.80;99.90;;;;;;4885268;29;20765;-81
2023/05/28 02:47:20;;;;;;;78.70;16.10;;;11.90;99.90;;;;;;4887622;29;20470;-82
2023/05/28 02:49:46;;;;;;;75.60;15.43;;;11.80;99.90;;;;;;4888626;29;20277;-82
2023/05/28 02:52:12;;;;;;;78.53;14.20;;;11.80;99.90;;;;;;4885905;29;20249;-82
2023/05/28 02:54:37;;;;;;;75.87;14.17;;;11.80;99.90;;;;;;4888371;29;20407;-82
2023/05/28 02:57:03;;;;;;;74.10;15.17;;;11.80;99.90;;;;;;4887726;29;20226;-82
2023/05/28 02:59:29;;;;;;;83.30;16.10;;;11.80;99.90;;;;;;4887052;29;20179;-82
2023/05/28 03:01:55;;;;;;;79.27;16.90;;;11.80;99.90;;;;;;4885323;29;20471;-82
2023/05/28 03:04:20;;;;;;;77.90;20.20;;;11.70;99.90;;;;;;4888211;29;20171;-82
2023/05/28 03:06:46;;;;;;;75.63;17.87;;;11.70;99.90;;;;;;4887776;29;20220;-82
2023/05/28 03:09:15;;;;;;;76.87;15.30;;;11.70;99.90;;;;;;4887768;29;20195;-81
2023/05/28 03:11:41;;;;;;;74.80;17.57;;;11.70;99.90;;;;;;4887765;29;20466;-81
2023/05/28 03:14:07;;;;;;;77.37;17.60;;;11.70;99.90;;;;;;4887856;29;20466;-82
2023/05/28 03:16:36;;;;;;;76.60;17.40;;;11.70;99.90;;;;;;4887725;29;20186;-82
2023/05/28 03:19:02;;;;;;;82.50;19.60;;;11.70;99.90;;;;;;4887387;29;20313;-82
2023/05/28 03:21:27;;;;;;;79.87;18.30;;;11.70;99.90;;;;;;4886022;29;20488;-82
2023/05/28 03:23:53;;;;;;;78.77;17.57;;;11.70;99.90;;;;;;4886190;29;20883;-82
2023/05/28 03:26:19;;;;;;;75.87;18.10;;;11.70;99.90;;;;;;4886987;29;20201;-82
2023/05/28 03:28:44;;;;;;;79.40;17.80;;;11.60;99.90;;;;;;4886868;29;20190;-82
2023/05/28 03:31:12;;;;;;;78.13;18.27;;;11.70;99.90;;;;;;4886890;29;20175;-82
2023/05/28 03:33:38;;;;;;;77.03;17.57;;;11.60;99.90;;;;;;4886496;29;20248;-82
2023/05/28 03:36:06;;;;;;;79.10;16.57;;;11.60;99.90;;;;;;4885201;29;20848;-82
2023/05/28 03:38:32;;;;;;;75.25;15.52;;;11.60;99.90;;;;;;4886093;29;20194;-82
2023/05/28 03:40:58;;;;;;;78.57;18.17;;;11.50;99.90;;;;;;4885853;29;20182;-82
2023/05/28 03:43:27;;;;;;;78.83;19.50;;;11.40;99.90;;;;;;4937612;23;20504;-80
2023/05/28 03:45:53;;;;;;;75.63;18.47;;;11.30;99.90;;;;;;4863307;29;20416;-80
2023/05/28 03:48:21;;;;;;;77.27;17.20;;;11.40;99.90;;;;;;4863620;29;20830;-80
2023/05/28 03:50:46;;;;;;;74.60;16.47;;;11.40;99.90;;;;;;4863844;29;20179;-80
2023/05/28 03:53:12;;;;;;;81.50;18.73;;;11.40;99.90;;;;;;4863697;29;20404;-80
2023/05/28 03:55:38;;;;;;;74.67;18.60;;;11.30;99.90;;;;;;4862197;29;20202;-80
2023/05/28 03:58:04;;;;;;;78.97;18.03;;;11.30;99.90;;;;;;4863478;29;20195;-80
2023/05/28 04:00:30;;;;;;;79.10;19.70;;;11.30;99.90;;;;;;4862091;29;20434;-80
2023/05/28 04:02:55;;;;;;;75.80;17.20;;;11.30;99.90;;;;;;4863085;29;20204;-80
2023/05/28 04:05:21;;;;;;;76.37;18.37;;;11.30;99.90;;;;;;4863661;29;20892;-80
2023/05/28 04:07:48;;;;;;;78.20;19.13;;;11.30;99.90;;;;;;4861752;29;20286;-80
2023/05/28 04:10:14;;;;;;;80.67;22.87;;;11.30;99.90;;;;;;4863236;29;20167;-80
2023/05/28 04:12:40;;;;;;;75.67;19.30;;;11.30;99.90;;;;;;4862214;29;20979;-80
2023/05/28 04:15:07;;;;;;;78.37;21.20;;;11.40;99.90;;;;;;4862001;29;20171;-80
2023/05/28 04:17:32;;;;;;;75.37;21.23;;;11.30;99.90;;;;;;4861833;29;20216;-80
2023/05/28 04:19:58;;;;;;;79.13;20.87;;;11.30;99.90;;;;;;4862930;29;20412;-80
2023/05/28 04:22:24;;;;;;;77.00;18.50;;;11.40;99.90;;;;;;4863198;29;20547;-80
2023/05/28 04:24:55;;;;;;;75.40;19.40;;;11.40;99.90;;;;;;4863313;29;20220;-80
2023/05/28 04:27:21;;;;;;;76.50;20.50;;;11.40;99.90;;;;;;4863217;29;20273;-80
2023/05/28 04:29:47;;;;;;;77.10;21.87;;;11.40;99.90;;;;;;4863088;29;20538;-80
2023/05/28 04:32:13;;;;;;;75.30;19.70;;;11.40;99.90;;;;;;4863546;29;20444;-80
2023/05/28 04:34:40;;;;;;;76.47;22.43;;;11.50;99.90;;;;;;4863101;29;20163;-80
2023/05/28 04:37:08;;;;;;;75.60;23.70;;;11.50;99.90;;;;;;4861522;29;20432;-80
2023/05/28 04:39:34;;;;;;;75.93;21.87;;;11.60;99.90;;;;;;4862799;29;20415;-80
2023/05/28 04:42:03;;;;;;;72.40;13.53;;;11.80;99.90;;;;;;4861853;29;20419;-80
2023/05/28 04:44:30;;;;;;;73.80;12.37;;;12.10;99.90;;;;;;4862827;29;20235;-80
2023/05/28 04:46:58;;;;;;;73.97;12.93;;;12.40;99.90;;;;;;4861648;29;20777;-80
2023/05/28 04:49:25;;;;;;;74.00;15.87;;;12.60;99.90;;;;;;4861694;29;20519;-81
2023/05/28 04:51:51;;;;;;;76.80;14.10;;;12.90;99.90;;;;;;4862652;29;20746;-81
2023/05/28 04:54:16;;;;;;;75.97;12.67;;;13.10;99.90;;;;;;4862828;29;20400;-81
2023/05/28 04:56:42;;;;;;;71.67;9.93;;;13.40;99.90;;;;;;4861177;29;20439;-81
2023/05/28 04:59:09;;;;;;;72.40;9.07;;;13.70;99.90;;;;;;4863005;29;20544;-80
2023/05/28 05:01:36;;;;;;;72.57;10.80;;;14.00;99.90;;;;;;4861743;29;20420;-81
2023/05/28 05:04:02;;;;;;;75.20;10.20;;;14.20;97.70;;;;;;4862555;29;20413;-80
2023/05/28 05:06:28;;;;;;;78.20;11.83;;;14.30;92.80;;;;;;4861606;29;20436;-80
2023/05/28 05:08:53;;;;;;;74.30;12.23;;;14.30;90.00;;;;;;4862889;29;20453;-80
2023/05/28 05:11:22;;;;;;;76.70;11.80;;;14.20;91.20;;;;;;4862520;29;20173;-80
2023/05/28 05:13:48;;;;;;;76.87;10.60;;;14.20;92.90;;;;;;4861273;29;20177;-80
2023/05/28 05:16:14;;;;;;;77.23;10.90;;;14.20;92.10;;;;;;4863764;29;20644;-80
2023/05/28 05:18:40;;;;;;;75.40;10.30;;;14.30;87.20;;;;;;4866053;29;20673;-80
2023/05/28 05:21:09;;;;;;;73.30;11.30;;;14.20;91.60;;;;;;4865160;29;20548;-80
2023/05/28 05:23:35;;;;;;;74.37;11.60;;;14.20;91.20;;;;;;4866366;29;20937;-81
2023/05/28 05:26:01;;;;;;;74.77;11.23;;;14.30;94.10;;;;;;4866229;29;20434;-81
2023/05/28 05:28:29;;;;;;;71.77;9.97;;;14.40;96.20;;;;;;4866315;29;20190;-80
2023/05/28 05:30:55;;;;;;;72.23;8.93;;;14.50;94.10;;;;;;4866021;29;20195;-80
2023/05/28 05:33:21;;;;;;;74.33;9.77;;;14.60;90.90;;;;;;4865865;29;20453;-80
2023/05/28 05:35:46;;;;;;;82.60;10.37;;;14.60;83.20;;;;;;4866153;29;20175;-80
2023/05/28 05:38:12;;;;;;;73.37;9.80;;;14.60;76.50;;;;;;4865947;29;20187;-81
2023/05/28 05:40:38;;;;;;;75.30;9.70;;;14.50;79.80;;;;;;4866146;29;20184;-81
2023/05/28 05:43:03;;;;;;;76.00;10.20;;;14.40;90.00;;;;;;4865846;29;20191;-80
2023/05/28 05:45:29;;;;;;;77.03;10.87;;;14.40;94.00;;;;;;4865487;29;20168;-80
2023/05/28 05:47:55;;;;;;;74.97;13.30;;;14.50;94.50;;;;;;4865956;29;20197;-80
2023/05/28 05:50:20;;;;;;;75.13;14.07;;;14.50;95.20;;;;;;4865773;29;20167;-80
2023/05/28 05:52:46;;;;;;;81.27;15.27;;;14.40;99.90;;;;;;4864390;29;20177;-80
2023/05/28 05:55:12;;;;;;;73.17;9.37;;;14.50;99.90;;;;;;4866075;29;20452;-80
2023/05/28 05:57:37;;;;;;;72.73;10.67;;;14.60;90.50;;;;;;4865976;29;20725;-80
2023/05/28 06:00:06;;;;;;;77.40;10.60;;;14.70;77.80;;;;;;4864297;29;20185;-80
2023/05/28 06:02:32;;;;;;;72.40;8.07;;;14.80;66.30;;;;;;4865547;29;20225;-80
2023/05/28 06:04:58;;;;;;;72.57;8.70;;;14.80;49.50;;;;;;4865870;29;20414;-80
2023/05/28 06:07:23;;;;;;;76.10;9.40;;;14.90;48.80;;;;;;4865726;29;20201;-80
2023/05/28 06:09:50;;;;;;;73.37;9.20;;;15.00;48.10;;;;;;4865480;29;20227;-80
2023/05/28 06:12:15;;;;;;;71.73;9.40;;;15.00;53.60;;;;;;4864197;29;20224;-80
2023/05/28 06:14:41;;;;;;;70.97;8.70;;;15.10;53.30;;;;;;4865799;29;20406;-80
2023/05/28 06:17:07;;;;;;;73.30;8.27;;;15.10;53.70;;;;;;4865518;29;20223;-80
2023/05/28 06:19:33;;;;;;;73.10;8.90;;;15.20;47.30;;;;;;4865828;29;20178;-80
2023/05/28 06:21:59;;;;;;;75.43;9.40;;;15.30;56.60;;;;;;4865399;29;20757;-80
2023/05/28 06:24:25;;;;;;;76.77;8.50;;;15.30;50.40;;;;;;4865567;29;20414;-80
2023/05/28 06:26:51;;;;;;;75.10;8.43;;;15.30;41.20;;;;;;4863899;29;20203;-81
2023/05/28 06:29:17;;;;;;;73.43;7.67;;;15.40;28.30;;;;;;4864237;29;20205;-80
2023/05/28 06:31:42;;;;;;;70.90;8.10;;;15.50;22.10;;;;;;4863531;29;20949;-79
2023/05/28 06:34:08;;;;;;;70.10;7.60;;;15.60;20.60;;;;;;4863698;29;20217;-80
2023/05/28 06:36:35;;;;;;;74.33;9.27;;;15.60;12.60;;;;;;4864193;29;20196;-80
2023/05/28 06:39:01;;;;;;;70.00;8.50;;;15.60;5.50;;;;;;4865325;29;20698;-80
2023/05/28 06:41:27;;;;;;;75.10;9.10;;;15.60;7.60;;;;;;4863341;29;20837;-80
2023/05/28 06:43:53;;;;;;;72.60;9.33;;;15.80;5.20;;;;;;4865063;29;20432;-80
2023/05/28 06:46:21;;;;;;;73.67;8.93;;;15.80;1.60;;;;;;4865071;29;20197;-80
2023/05/28 06:48:46;;;;;;;69.13;9.33;;;15.80;2.20;;;;;;4864999;29;20193;-80
2023/05/28 06:51:12;;;;;;;69.77;8.10;;;15.90;1.00;;;;;;4864749;29;20517;-80
2023/05/28 06:53:38;;;;;;;71.50;9.23;;;15.90;3.30;;;;;;4864943;29;20190;-80
2023/05/28 06:56:05;;;;;;;76.40;10.17;;;16.00;6.50;;;;;;4864778;29;20558;-80
2023/05/28 06:58:31;;;;;;;70.70;9.53;;;16.10;1.00;;;;;;4865222;29;20429;-80
2023/05/28 07:00:58;;;;;;;74.93;9.87;;;16.20;1.00;;;;;;4864927;29;20761;-80
2023/05/28 07:03:23;;;;;;;71.70;9.10;;;16.20;1.00;;;;;;4864763;29;20265;-80
2023/05/28 07:05:49;;;;;;;71.43;9.63;;;16.20;1.00;;;;;;4863625;29;20424;-80
2023/05/28 07:08:15;;;;;;;71.97;9.60;;;16.20;1.00;;;;;;4864586;29;20255;-80
2023/05/28 07:10:42;;;;;;;74.77;9.70;;;16.40;1.00;;;;;;4865464;29;20172;-83
2023/05/28 07:13:08;;;;;;;72.40;7.30;;;16.40;1.00;;;;;;4865016;29;20644;-82
2023/05/28 07:15:34;;;;;;;72.40;7.30;;;16.50;1.00;;;;;;4865708;29;20414;-82
2023/05/28 07:18:01;;;;;;;72.37;7.83;;;16.60;1.00;;;;;;4865404;29;20201;-82
2023/05/28 07:20:27;;;;;;;72.50;8.77;;;16.60;1.00;;;;;;4865977;29;20611;-82
2023/05/28 07:22:54;;;;;;;77.10;8.57;;;16.60;1.00;;;;;;4866827;29;20507;-82
2023/05/28 07:25:20;;;;;;;69.87;8.90;;;16.60;1.00;;;;;;4864495;29;20455;-82
2023/05/28 07:27:45;;;;;;;70.53;7.47;;;16.70;1.00;;;;;;4865701;29;20195;-82
2023/05/28 07:30:11;;;;;;;73.97;7.47;;;16.80;1.00;;;;;;4863959;29;20172;-82
2023/05/28 07:32:37;;;;;;;71.40;9.20;;;16.80;1.00;;;;;;4864707;29;20182;-82
2023/05/28 07:35:03;;;;;;;72.73;7.77;;;16.90;1.00;;;;;;4865790;29;20504;-82
2023/05/28 07:37:29;;;;;;;75.93;9.10;;;17.00;1.00;;;;;;4865443;29;20432;-82
2023/05/28 07:40:05;;;;;;;72.60;7.67;;;17.00;1.00;;;;;;4864695;29;20483;-83
2023/05/28 07:42:30;;;;;;;72.57;8.00;;;17.10;1.00;;;;;;4863628;29;20191;-82
2023/05/28 07:44:56;;;;;;;69.50;7.40;;;17.20;1.00;;;;;;4864732;29;20468;-82
2023/05/28 07:47:22;;;;;;;73.07;8.33;;;17.30;1.00;;;;;;4864924;29;20552;-82
2023/05/28 07:49:47;;;;;;;68.93;8.10;;;17.30;1.00;;;;;;4864798;29;20187;-82
2023/05/28 07:52:13;;;;;;;74.47;7.90;;;17.30;1.00;;;;;;4863728;29;20183;-82
2023/05/28 07:54:41;;;;;;;72.50;7.53;;;17.30;1.00;;;;;;4863249;29;20540;-82
2023/05/28 07:57:07;;;;;;;77.80;8.30;;;17.50;1.00;;;;;;4864617;29;20183;-82
2023/05/28 07:59:33;;;;;;;76.03;7.40;;;17.60;1.00;;;;;;4863082;29;20427;-82
2023/05/28 08:02:01;;;;;;;73.00;7.80;;;17.60;1.00;;;;;;4864783;29;20419;-82
2023/05/28 08:04:27;;;;;;;74.77;9.00;;;17.60;1.00;;;;;;4864829;29;20167;-82
2023/05/28 08:06:53;;;;;;;73.97;8.67;;;17.70;1.00;;;;;;4864485;29;20431;-82
2023/05/28 08:09:24;;;;;;;72.00;7.67;;;17.70;1.00;;;;;;4864591;29;20206;-82
2023/05/28 08:11:50;;;;;;;74.10;8.20;;;17.70;1.00;;;;;;4863219;29;20585;-82
2023/05/28 08:14:16;;;;;;;73.40;7.97;;;17.70;1.00;;;;;;4865054;29;20447;-82
2023/05/28 08:16:41;;;;;;;73.90;6.87;;;17.70;1.00;;;;;;4863030;29;20223;-82
2023/05/28 08:19:17;;;;;;;74.83;7.77;;;17.80;1.00;;;;;;4864347;29;20199;-82
2023/05/28 08:21:43;;;;;;;73.60;8.03;;;17.90;1.00;;;;;;4864884;29;20238;-82
2023/05/28 08:24:10;;;;;;;74.97;8.67;;;17.90;1.00;;;;;;4864168;29;20443;-82
2023/05/28 08:26:37;;;;;;;72.30;7.40;;;18.00;1.00;;;;;;4864569;29;20556;-82
2023/05/28 08:29:04;;;;;;;73.97;8.47;;;18.10;1.00;;;;;;4865031;29;21000;-82
2023/05/28 08:31:31;;;;;;;71.80;8.83;;;18.20;1.00;;;;;;4864736;29;20476;-82
2023/05/28 08:33:57;;;;;;;70.93;8.80;;;18.30;1.00;;;;;;4864867;29;20411;-82
2023/05/28 08:36:23;;;;;;;75.67;9.37;;;18.40;1.00;;;;;;4864596;29;20436;-82
2023/05/28 08:38:49;;;;;;;75.80;11.20;;;18.40;1.00;;;;;;4864017;29;20411;-82
2023/05/28 08:41:15;;;;;;;75.63;9.83;;;18.50;1.00;;;;;;4864496;29;20175;-82
2023/05/28 08:43:42;;;;;;;76.50;10.13;;;18.60;1.00;;;;;;4863282;29;20195;-82
2023/05/28 08:46:07;;;;;;;74.37;9.10;;;18.70;1.00;;;;;;4864575;29;20539;-81
2023/05/28 08:48:34;;;;;;;73.07;10.23;;;18.70;1.00;;;;;;4864123;29;20491;-82
2023/05/28 08:51:01;;;;;;;73.53;9.63;;;18.80;1.00;;;;;;4865548;29;20168;-82
2023/05/28 08:53:30;;;;;;;76.10;10.40;;;18.90;1.00;;;;;;4868315;29;20488;-82
2023/05/28 08:55:59;;;;;;;72.20;10.17;;;19.00;1.00;;;;;;4866562;29;20905;-82
2023/05/28 08:58:25;;;;;;;75.03;10.70;;;19.00;1.00;;;;;;4868267;29;20425;-82
2023/05/28 09:00:51;;;;;;;74.97;10.13;;;19.20;1.00;;;;;;4868236;29;20423;-81
2023/05/28 09:03:17;;;;;;;76.00;12.23;;;19.40;1.00;;;;;;4866760;29;20424;-82
2023/05/28 09:05:42;;;;;;;74.80;9.40;;;19.50;1.00;;;;;;4866660;29;20424;-82
2023/05/28 09:08:13;;;;;;;73.87;9.00;;;19.60;1.00;;;;;;4868084;29;20259;-82
2023/05/28 09:10:43;;;;;;;74.10;6.70;;;19.80;1.00;;;;;;4866972;29;20175;-82
2023/05/28 09:13:08;;;;;;;75.33;8.07;;;20.00;1.00;;;;;;4867037;29;20423;-82
2023/05/28 09:15:35;;;;;;;70.33;5.77;;;20.00;1.00;;;;;;4866864;29;20421;-82
2023/05/28 09:18:01;;;;;;;73.80;5.87;;;20.10;1.00;;;;;;4867842;29;20191;-82
2023/05/28 09:20:27;;;;;;;81.40;6.00;;;20.20;1.00;;;;;;4867794;29;20445;-82
2023/05/28 09:23:15;;;;;;;72.47;6.43;;;20.30;1.00;;;;;;4867378;29;20183;-82
2023/05/28 09:25:41;;;;;;;77.80;7.13;;;20.40;1.00;;;;;;4868120;29;20405;-82
2023/05/28 09:28:07;;;;;;;75.43;6.67;;;20.60;1.00;;;;;;4868703;29;20461;-82
2023/05/28 09:30:37;;;;;;;73.20;6.30;;;20.70;1.00;;;;;;4867695;29;20414;-83
2023/05/28 09:33:04;;;;;;;72.93;7.60;;;20.80;1.00;;;;;;4867706;29;20180;-82
2023/05/28 09:35:32;;;;;;;70.80;6.37;;;21.00;1.00;;;;;;4867475;29;20414;-82
2023/05/28 09:38:11;;;;;;;70.97;6.47;;;21.30;1.00;;;;;;4866850;29;20525;-83
2023/05/28 09:40:43;;;;;;;76.03;6.47;;;21.50;1.00;;;;;;4867496;29;20421;-83
2023/05/28 09:43:10;;;;;;;74.53;5.10;;;21.70;1.00;;;;;;4929074;23;20495;-81
2023/05/28 09:45:36;;;;;;;74.53;6.40;;;21.80;1.00;;;;;;4895838;29;20403;-82
2023/05/28 09:48:03;;;;;;;72.17;5.60;;;22.00;1.00;;;;;;4896716;29;20451;-82
2023/05/28 09:50:29;;;;;;;70.70;5.33;;;22.20;1.00;;;;;;4896482;29;20503;-83
2023/05/28 09:52:57;;;;;;;75.97;5.80;;;22.40;1.00;;;;;;4897012;29;20395;-82
2023/05/28 09:55:25;;;;;;;71.70;5.37;;;22.60;1.00;;;;;;4896796;29;20486;-82
2023/05/28 09:58:02;;;;;;;71.10;4.90;;;22.80;1.00;;;;;;4894773;29;20431;-83
2023/05/28 10:00:48;;;;;;;71.50;5.33;;;22.50;1.00;;;;;;4895589;29;20431;-82
2023/05/28 10:03:27;;;;;;;72.20;5.30;;;22.70;1.00;;;;;;4896044;29;20922;-83
2023/05/28 10:05:59;;;;;;;71.63;4.83;;;23.10;1.00;;;;;;4895844;29;20392;-83
2023/05/28 10:08:28;;;;;;;73.20;5.70;;;23.20;1.00;;;;;;4895641;29;20499;-83
2023/05/28 10:10:54;;;;;;;77.87;7.20;;;23.50;1.00;;;;;;4897392;29;20935;-82
2023/05/28 10:13:24;;;;;;;72.07;5.77;;;23.60;1.00;;;;;;4896886;29;20410;-82
2023/05/28 10:15:50;;;;;;;75.50;6.20;;;23.80;1.00;;;;;;4896457;29;20400;-83
2023/05/28 10:18:19;;;;;;;73.50;6.40;;;23.90;1.00;;;;;;4895723;29;20911;-82
2023/05/28 10:20:46;;;;;;;74.20;6.67;;;23.80;1.00;;;;;;4886246;29;20439;-82
2023/05/28 10:23:13;;;;;;;72.57;7.50;;;23.80;1.00;;;;;;4887358;29;20412;-82
2023/05/28 10:25:40;;;;;;;71.97;6.30;;;23.90;1.00;;;;;;4888918;29;20442;-82
2023/05/28 10:28:06;;;;;;;75.13;7.27;;;24.20;1.00;;;;;;4887349;29;20522;-82
2023/05/28 10:30:36;;;;;;;73.60;6.57;;;24.30;1.00;;;;;;4888141;29;20494;-82
2023/05/28 10:33:11;;;;;;;72.00;6.10;;;24.50;1.00;;;;;;4888311;29;20384;-82
2023/05/28 10:35:53;;;;;;;74.13;6.00;;;24.80;1.00;;;;;;4887903;29;20411;-82
2023/05/28 10:38:19;;;;;;;72.00;5.07;;;24.90;1.00;;;;;;4886143;29;20484;-82
2023/05/28 10:40:45;;;;;;;72.33;5.10;;;25.00;1.00;;;;;;4887262;29;20443;-82
2023/05/28 10:43:38;;;;;;;71.40;4.73;;;25.40;1.00;;;;;;4888836;29;20176;-82
2023/05/28 10:46:24;;;;;;;73.70;4.90;;;25.40;1.00;;;;;;4888142;29;20211;-82
2023/05/28 10:49:07;;;;;;;73.00;5.60;;;25.40;1.00;;;;;;4882534;29;20448;-83
2023/05/28 10:51:54;;;;;;;71.70;5.03;;;25.40;1.00;;;;;;4895435;29;20422;-83
2023/05/28 10:54:29;;;;;;;126.60;42.33;;;25.30;1.00;;;;;;4896681;29;20407;-83
2023/05/28 10:57:23;;;;;;;73.73;5.90;;;25.70;1.00;;;;;;4894639;29;20526;-83
2023/05/28 11:00:01;;;;;;;73.70;5.17;;;25.70;1.00;;;;;;4896006;29;20415;-83
2023/05/28 11:02:28;;;;;;;72.87;5.20;;;25.70;1.00;;;;;;4888795;29;20406;-82
2023/05/28 11:04:56;;;;;;;76.77;5.60;;;25.70;1.00;;;;;;4889064;29;20505;-82
2023/05/28 11:07:29;;;;;;;79.90;5.57;;;25.70;1.00;;;;;;4886823;29;20433;-82
2023/05/28 11:09:56;;;;;;;75.50;6.73;;;25.90;1.00;;;;;;4887960;29;20509;-82
2023/05/28 11:12:22;;;;;;;72.70;4.63;;;26.10;1.00;;;;;;4885725;29;20415;-82
2023/05/28 11:14:48;;;;;;;74.97;5.23;;;26.30;1.00;;;;;;4884904;29;20414;-82
2023/05/28 11:17:14;;;;;;;79.90;10.47;;;26.40;1.00;;;;;;4885343;29;20467;-82
2023/05/28 11:19:42;;;;;;;194.70;84.73;;;26.60;1.00;;;;;;4885655;29;20434;-82
2023/05/28 11:22:08;;;;;;;188.17;81.27;;;26.70;1.00;;;;;;4885664;29;20167;-82
2023/05/28 11:24:59;;;;;;;142.47;49.33;;;26.90;1.00;;;;;;4884508;29;20407;-82
2023/05/28 11:27:29;;;;;;;75.37;7.20;;;27.30;1.00;;;;;;4884190;29;20199;-82
2023/05/28 11:32:28;;;;;;;101.20;25.40;;;27.00;1.00;;;;;;4929070;23;20487;-82
2023/05/28 11:34:55;;;;;;;74.37;5.10;;;27.30;1.00;;;;;;4884154;29;20451;-83
2023/05/28 11:37:41;;;;;;;95.07;16.70;;;27.20;1.00;;;;;;4883707;29;20435;-82
2023/05/28 11:40:14;;;;;;;74.10;6.03;;;26.70;1.00;;;;;;4885200;29;20472;-82
2023/05/28 11:42:46;;;;;;;73.63;6.00;;;26.50;1.00;;;;;;4883569;29;20475;-82
2023/05/28 11:45:16;;;;;;;86.07;15.17;;;26.70;1.00;;;;;;4885535;29;20397;-82
2023/05/28 11:47:46;;;;;;;88.73;16.17;;;26.80;1.00;;;;;;4883166;29;20494;-83
2023/05/28 11:50:14;;;;;;;76.07;8.57;;;26.60;1.00;;;;;;4884457;29;20427;-85
2023/05/28 11:52:41;;;;;;;75.60;7.47;;;26.50;1.00;;;;;;4881289;29;20462;-85
2023/05/28 11:55:07;;;;;;;71.87;5.20;;;26.50;1.00;;;;;;4881408;29;20423;-84
2023/05/28 11:57:33;;;;;;;75.90;5.90;;;26.20;1.00;;;;;;4883511;29;20506;-84
2023/05/28 12:00:16;;;;;;;76.80;5.97;;;26.00;1.00;;;;;;4883016;29;20460;-84
2023/05/28 12:02:43;;;;;;;73.70;4.87;;;26.20;1.00;;;;;;4882832;29;20797;-85
2023/05/28 12:05:09;;;;;;;71.27;5.40;;;26.00;1.00;;;;;;4880700;29;20430;-83
2023/05/28 12:07:35;;;;;;;72.47;5.20;;;25.90;1.00;;;;;;4881316;29;20442;-85
2023/05/28 12:10:09;;;;;;;73.73;5.00;;;25.80;1.00;;;;;;4881689;29;20285;-84
2023/05/28 12:12:41;;;;;;;72.37;6.20;;;25.80;1.00;;;;;;4881782;29;20418;-84
2023/05/28 12:15:07;;;;;;;74.03;4.73;;;25.90;1.00;;;;;;4880401;29;20426;-84
2023/05/28 12:17:37;;;;;;;70.87;4.40;;;25.80;1.00;;;;;;4881329;29;20431;-84
2023/05/28 12:20:15;;;;;;;71.10;4.43;;;26.00;1.00;;;;;;4880378;29;20431;-84
2023/05/28 12:22:41;;;;;;;73.50;4.90;;;26.30;1.00;;;;;;4882303;29;20425;-84
2023/05/28 12:25:07;;;;;;;71.53;4.47;;;26.30;1.00;;;;;;4880641;29;20423;-85
2023/05/28 12:27:33;;;;;;;72.17;5.13;;;26.30;1.00;;;;;;4882488;29;20944;-84
2023/05/28 12:29:59;;;;;;;71.50;4.53;;;26.40;1.00;;;;;;4883529;29;20461;-85
2023/05/28 12:32:25;;;;;;;72.70;5.43;;;26.40;1.00;;;;;;4882622;29;20434;-85
2023/05/28 12:34:53;;;;;;;73.77;5.40;;;26.30;1.00;;;;;;4882839;29;20418;-85
2023/05/28 12:37:20;;;;;;;73.50;5.33;;;26.00;1.00;;;;;;4881146;29;20931;-85
2023/05/28 12:39:46;;;;;;;71.57;5.10;;;26.20;1.00;;;;;;4882933;29;20420;-84